Time;durP1;ratioP1;P1;durP2;ratioP2;P2;SDS_P1;SDS_P2;PMS_P1;PMS_P2;Temp;Humidity;BMP_temperature;BMP_pressure;BME280_temperature;BME280_humidity;BME280_pressure;Samples;Min_cycle;Max_cycle;Signal;HPM_P1;HPM_P2
2021/11/01 00:02:20;;;;;;;28.15;18.88;;;;;;;15.59;47.48;99817.75;4965700;28;102236;-80
2021/11/01 00:04:47;;;;;;;29.17;19.98;;;;;;;15.45;48.02;99822.22;4966303;28;98219;-80
2021/11/01 00:07:15;;;;;;;27.92;18.85;;;;;;;15.56;47.70;99826.81;4959272;28;96866;-80
2021/11/01 00:09:41;;;;;;;32.58;20.70;;;;;;;15.51;47.93;99819.13;4957776;28;96996;-80
2021/11/01 00:12:09;;;;;;;30.95;20.02;;;;;;;15.56;47.94;99831.31;4972695;28;98430;-80
2021/11/01 00:14:36;;;;;;;30.25;19.67;;;;;;;15.61;47.56;99830.03;4958271;28;99468;-81
2021/11/01 00:17:04;;;;;;;28.58;19.33;;;;;;;15.87;47.28;99813.03;4957282;28;96672;-81
2021/11/01 00:19:31;;;;;;;30.23;19.20;;;;;;;15.58;47.91;99822.22;4960087;28;98490;-81
2021/11/01 00:21:58;;;;;;;31.55;19.58;;;;;;;15.60;47.61;99812.34;4961040;28;101138;-81
2021/11/01 00:24:33;;;;;;;29.95;20.13;;;;;;;15.68;47.77;99798.47;4965648;28;97969;-82
2021/11/01 00:27:00;;;;;;;31.88;19.42;;;;;;;15.82;47.55;99806.31;4952394;28;96961;-82
2021/11/01 00:29:27;;;;;;;27.92;19.00;;;;;;;15.36;48.35;99796.22;4959241;28;97229;-81
2021/11/01 00:31:54;;;;;;;32.25;20.23;;;;;;;15.41;48.24;99801.25;4959121;28;97734;-81
2021/11/01 00:34:21;;;;;;;29.50;19.33;;;;;;;15.58;47.90;99805.41;4953547;28;98039;-81
2021/11/01 00:36:47;;;;;;;29.42;19.95;;;;;;;15.75;47.23;99805.91;4954064;28;97072;-82
2021/11/01 00:39:17;;;;;;;28.42;19.58;;;;;;;15.59;47.91;99802.63;4953812;28;97142;-82
2021/11/01 00:41:45;;;;;;;30.42;19.00;;;;;;;15.17;48.90;99798.47;4952036;28;101773;-81
2021/11/01 00:44:12;;;;;;;34.33;19.92;;;;;;;15.60;47.97;99790.19;4950573;28;98845;-82
2021/11/01 00:46:38;;;;;;;31.00;19.77;;;;;;;15.58;48.07;99802.75;4955350;28;96866;-82
2021/11/01 00:49:05;;;;;;;29.20;19.35;;;;;;;15.36;48.29;99806.88;4965278;28;96798;-81
2021/11/01 00:51:37;;;;;;;30.60;19.05;;;;;;;15.47;47.91;99801.66;4959199;28;99080;-81
2021/11/01 00:54:04;;;;;;;28.13;19.60;;;;;;;15.22;48.52;99796.38;4963715;28;99267;-81
2021/11/01 00:56:30;;;;;;;27.95;19.33;;;;;;;15.48;47.99;99806.03;4953826;28;96716;-82
2021/11/01 00:59:02;;;;;;;26.67;18.95;;;;;;;15.32;48.27;99805.41;4963993;28;96853;-82
2021/11/01 01:01:31;;;;;;;28.50;19.55;;;;;;;15.34;48.93;99800.81;4957609;28;98841;-81
2021/11/01 01:03:58;;;;;;;29.80;19.77;;;;;;;15.28;48.50;99790.59;4957235;28;99496;-81
2021/11/01 01:06:25;;;;;;;30.83;19.65;;;;;;;15.23;48.99;99783.91;4958238;28;96721;-81
2021/11/01 01:08:51;;;;;;;29.48;19.02;;;;;;;15.30;48.28;99774.50;4955397;28;96881;-81
2021/11/01 01:11:18;;;;;;;27.73;18.75;;;;;;;15.35;48.55;99772.41;4965216;28;98952;-81
2021/11/01 01:13:45;;;;;;;28.65;19.50;;;;;;;15.39;48.34;99756.09;4957937;28;99990;-82
2021/11/01 01:16:22;;;;;;;28.50;19.65;;;;;;;15.17;48.87;99750.56;4955054;28;97008;-81
2021/11/01 01:18:49;;;;;;;29.40;20.10;;;;;;;14.95;49.58;99755.69;4955554;28;96912;-81
2021/11/01 01:24:01;;;;;;;29.92;20.25;;;;;;;15.17;49.10;99755.88;4968614;28;96862;-81
2021/11/01 01:26:28;;;;;;;31.00;19.65;;;;;;;14.95;49.55;99750.38;4960543;28;97059;-81
2021/11/01 01:28:56;;;;;;;31.65;20.10;;;;;;;14.99;49.54;99746.53;4965356;28;96844;-81
2021/11/01 01:31:24;;;;;;;29.98;20.92;;;;;;;15.08;49.25;99745.91;4961646;28;99383;-82
2021/11/01 01:33:51;;;;;;;30.80;20.50;;;;;;;14.96;49.59;99754.75;4961283;28;97224;-80
2021/11/01 01:36:18;;;;;;;32.05;19.90;;;;;;;14.83;49.83;99753.88;4957027;28;97087;-83
2021/11/01 01:38:46;;;;;;;30.45;19.77;;;;;;;14.82;50.15;99760.16;4957547;28;98467;-81
2021/11/01 01:41:14;;;;;;;28.42;19.67;;;;;;;14.90;49.84;99748.00;4958418;28;99401;-81
2021/11/01 01:43:45;;;;;;;30.77;20.90;;;;;;;14.90;49.72;99747.19;4956761;28;98184;-82
2021/11/01 01:46:12;;;;;;;30.08;20.58;;;;;;;14.91;49.62;99740.88;4955987;28;96813;-81
2021/11/01 01:48:41;;;;;;;34.72;21.30;;;;;;;14.93;49.64;99739.84;4955982;28;96678;-81
2021/11/01 01:51:08;;;;;;;40.20;22.20;;;;;;;14.96;49.43;99741.44;4957722;28;100809;-81
2021/11/01 01:53:35;;;;;;;28.27;20.13;;;;;;;14.80;49.84;99736.31;4964386;28;101464;-82
2021/11/01 01:56:02;;;;;;;30.80;19.98;;;;;;;14.88;49.80;99733.13;4974071;28;96443;-82
2021/11/01 01:58:35;;;;;;;33.90;19.70;;;;;;;14.75;50.02;99728.66;4975380;28;97014;-82
2021/11/01 02:01:08;;;;;;;32.70;21.17;;;;;;;14.71;50.54;99729.81;4959474;28;98926;-82
2021/11/01 02:03:36;;;;;;;30.23;20.90;;;;;;;14.80;50.32;99735.47;4963836;28;101856;-82
2021/11/01 02:06:10;;;;;;;38.13;21.13;;;;;;;14.91;49.78;99732.91;4945993;28;96736;-82
2021/11/01 02:08:43;;;;;;;30.63;20.27;;;;;;;14.71;50.22;99726.31;4962067;28;97768;-82
2021/11/01 02:11:17;;;;;;;38.60;20.75;;;;;;;14.74;49.94;99723.44;4976845;28;97882;-82
2021/11/01 02:13:49;;;;;;;32.78;19.90;;;;;;;14.49;50.54;99721.63;4978669;28;96882;-81
2021/11/01 02:16:16;;;;;;;30.67;19.92;;;;;;;14.60;50.77;99718.22;4974460;28;96759;-81
2021/11/01 02:18:48;;;;;;;31.30;21.65;;;;;;;14.73;50.40;99705.78;4961680;28;97207;-81
2021/11/01 02:21:25;;;;;;;39.17;20.55;;;;;;;14.75;50.34;99707.41;4958988;28;98186;-80
2021/11/01 02:23:59;;;;;;;33.45;21.30;;;;;;;14.74;50.27;99710.16;4956376;28;99884;-81
2021/11/01 02:26:28;;;;;;;36.58;21.02;;;;;;;14.77;50.07;99710.78;4962762;28;97251;-82
2021/11/01 02:28:55;;;;;;;31.67;21.08;;;;;;;14.74;50.22;99700.38;4962499;28;96875;-82
2021/11/01 02:31:22;;;;;;;32.45;20.40;;;;;;;14.69;50.39;99699.84;4966611;28;101970;-80
2021/11/01 02:33:49;;;;;;;34.25;20.67;;;;;;;14.74;50.10;99691.53;4960855;28;98490;-81
2021/11/01 02:36:17;;;;;;;31.75;22.10;;;;;;;14.63;50.70;99681.66;4966244;28;96812;-81
2021/11/01 02:38:49;;;;;;;34.40;21.67;;;;;;;14.83;50.05;99682.06;4969384;28;96844;-81
2021/11/01 02:41:21;;;;;;;33.20;21.13;;;;;;;14.91;49.78;99674.38;4966473;28;102084;-81
2021/11/01 02:43:53;;;;;;;32.03;21.70;;;;;;;14.42;50.81;99679.59;4960401;28;97796;-82
2021/11/01 02:46:20;;;;;;;29.63;21.00;;;;;;;14.59;50.96;99685.47;4946916;28;98244;-81
2021/11/01 02:48:47;;;;;;;33.95;21.48;;;;;;;14.77;50.25;99690.47;4950659;28;97343;-82
2021/11/01 02:51:15;;;;;;;34.05;21.50;;;;;;;14.49;50.75;99681.75;4955943;28;101221;-82
2021/11/01 02:53:42;;;;;;;35.17;21.27;;;;;;;14.55;50.82;99677.81;4959352;28;99767;-80
2021/11/01 02:56:10;;;;;;;29.77;19.95;;;;;;;14.61;50.55;99680.91;4950473;28;96869;-81
2021/11/01 02:58:37;;;;;;;32.20;20.52;;;;;;;14.59;50.53;99677.47;4962050;28;97143;-82
2021/11/01 03:01:05;;;;;;;32.13;21.02;;;;;;;14.68;50.65;99673.34;4959718;28;99047;-81
2021/11/01 03:03:32;;;;;;;34.47;20.75;;;;;;;14.73;50.28;99679.19;4970914;28;96707;-82
2021/11/01 03:06:00;;;;;;;31.98;21.23;;;;;;;14.74;49.97;99657.81;4967910;28;96498;-81
2021/11/01 03:08:30;;;;;;;32.15;20.38;;;;;;;14.77;50.34;99666.56;4956093;28;96970;-81
2021/11/01 03:10:58;;;;;;;34.42;21.05;;;;;;;14.82;49.82;99659.94;4960648;28;96882;-81
2021/11/01 03:13:26;;;;;;;32.95;21.38;;;;;;;14.49;50.86;99672.91;4958529;28;99117;-82
2021/11/01 03:15:54;;;;;;;32.13;20.30;;;;;;;14.64;50.58;99666.53;4955620;28;97184;-81
2021/11/01 03:18:23;;;;;;;33.95;22.67;;;;;;;14.86;49.85;99663.22;4952007;28;98595;-81
2021/11/01 03:20:51;;;;;;;31.83;20.77;;;;;;;14.72;50.08;99664.19;4951717;28;101117;-81
2021/11/01 03:23:26;;;;;;;34.33;21.67;;;;;;;14.63;50.30;99662.19;4954509;28;101082;-81
2021/11/01 03:25:56;;;;;;;39.20;21.63;;;;;;;14.66;50.48;99665.47;4952375;28;96718;-82
2021/11/01 03:28:25;;;;;;;30.83;20.42;;;;;;;14.62;50.34;99649.84;4963515;28;96911;-82
2021/11/01 03:30:56;;;;;;;30.63;21.80;;;;;;;14.66;50.31;99654.84;4960111;28;102314;-81
2021/11/01 03:33:24;;;;;;;30.27;20.52;;;;;;;14.36;51.32;99659.59;4947597;28;98934;-82
2021/11/01 03:35:52;;;;;;;36.60;22.35;;;;;;;14.60;50.51;99659.72;4944500;28;96608;-81
2021/11/01 03:38:20;;;;;;;32.20;21.10;;;;;;;14.40;51.20;99655.78;4955724;28;96830;-82
2021/11/01 03:40:47;;;;;;;33.40;21.40;;;;;;;14.27;51.37;99662.84;4962970;28;99112;-82
2021/11/01 03:43:25;;;;;;;32.83;22.05;;;;;;;14.32;51.17;99663.38;4955632;28;99152;-82
2021/11/01 03:45:53;;;;;;;36.35;21.90;;;;;;;14.45;51.14;99666.09;4955451;28;96629;-82
2021/11/01 03:48:21;;;;;;;34.58;22.45;;;;;;;14.32;51.34;99650.09;4958093;28;96781;-82
2021/11/01 03:50:58;;;;;;;35.90;21.60;;;;;;;14.62;50.45;99661.34;4963623;28;100885;-82
2021/11/01 03:53:25;;;;;;;35.00;21.42;;;;;;;14.45;50.85;99660.78;4960321;28;99695;-81
2021/11/01 03:55:51;;;;;;;33.33;20.98;;;;;;;14.55;50.82;99653.88;4955011;28;96740;-81
2021/11/01 03:58:18;;;;;;;34.38;22.08;;;;;;;14.70;50.11;99658.97;4955462;28;96976;-82
2021/11/01 04:00:45;;;;;;;35.42;23.15;;;;;;;14.56;50.46;99664.41;4956089;28;98095;-82
2021/11/01 04:03:13;;;;;;;31.05;21.52;;;;;;;14.48;51.07;99665.88;4968597;28;100527;-83
2021/11/01 04:05:39;;;;;;;31.08;21.73;;;;;;;14.57;50.86;99671.41;4955450;28;97771;-82
2021/11/01 04:08:08;;;;;;;35.78;22.20;;;;;;;14.64;50.32;99666.53;4956911;28;96745;-82
2021/11/01 04:10:34;;;;;;;39.90;22.10;;;;;;;14.51;50.77;99671.84;4954119;28;97810;-82
2021/11/01 04:13:01;;;;;;;35.17;22.75;;;;;;;14.55;50.78;99672.50;4956575;28;101480;-81
2021/11/01 04:15:28;;;;;;;34.67;22.88;;;;;;;14.55;50.76;99675.16;4954086;28;98933;-82
2021/11/01 04:17:57;;;;;;;35.28;22.42;;;;;;;14.69;50.23;99673.25;4967695;28;96758;-81
2021/11/01 04:20:32;;;;;;;33.97;22.33;;;;;;;14.58;50.58;99682.91;4956259;28;100773;-81
2021/11/01 04:23:01;;;;;;;30.90;21.77;;;;;;;14.64;50.20;99688.66;4965049;28;101159;-81
2021/11/01 04:25:31;;;;;;;39.50;22.95;;;;;;;14.63;50.21;99686.13;4960799;28;96640;-82
2021/11/01 04:27:59;;;;;;;35.78;22.90;;;;;;;14.52;50.55;99678.84;4964136;28;97105;-81
2021/11/01 04:30:27;;;;;;;41.63;22.95;;;;;;;14.57;50.47;99676.72;4960197;28;97857;-81
2021/11/01 04:32:55;;;;;;;35.25;22.95;;;;;;;14.42;50.78;99672.47;4969576;28;100099;-81
2021/11/01 04:35:25;;;;;;;35.35;22.38;;;;;;;14.43;51.01;99689.28;4976368;28;95909;-82
2021/11/01 04:37:58;;;;;;;33.38;23.15;;;;;;;14.71;50.42;99689.94;4981937;28;96801;-81
2021/11/01 04:40:32;;;;;;;33.05;21.77;;;;;;;14.71;49.88;99695.25;4980075;28;98356;-81
2021/11/01 04:53:59;;;;;;;36.15;22.63;;;;;;;14.52;50.67;99697.47;4948415;28;97058;-81
2021/11/01 04:56:26;;;;;;;31.38;22.77;;;;;;;14.17;51.61;99691.00;4959302;28;97313;-79
2021/11/01 04:58:56;;;;;;;33.70;22.60;;;;;;;14.53;50.63;99693.84;4960247;28;98560;-81
2021/11/01 05:01:29;;;;;;;35.78;23.42;;;;;;;14.55;50.66;99702.59;4968965;28;99245;-82
2021/11/01 05:04:00;;;;;;;35.80;23.05;;;;;;;14.71;50.15;99705.88;4972923;28;99859;-82
2021/11/01 05:06:26;;;;;;;33.05;23.30;;;;;;;14.62;50.43;99701.22;4971711;28;97202;-82
2021/11/01 05:08:58;;;;;;;34.30;22.92;;;;;;;14.73;50.13;99703.97;4973037;28;96728;-82
2021/11/01 05:11:30;;;;;;;33.40;21.92;;;;;;;14.79;49.86;99712.47;4979465;28;100225;-82
2021/11/01 05:14:02;;;;;;;34.88;23.38;;;;;;;14.63;50.34;99713.56;4967812;28;99573;-82
2021/11/01 05:16:48;;;;;;;34.28;22.23;;;;;;;14.89;49.94;99719.75;4961719;28;96791;-81
2021/11/01 05:19:22;;;;;;;35.70;23.83;;;;;;;14.91;49.60;99712.47;4961040;28;96790;-83
2021/11/01 05:21:58;;;;;;;34.03;22.58;;;;;;;15.06;49.33;99716.75;4961549;28;101276;-80
2021/11/01 05:24:30;;;;;;;37.00;23.33;;;;;;;14.69;50.34;99710.47;4965767;28;97323;-81
2021/11/01 05:29:48;;;;;;;38.72;23.60;;;;;;;14.96;49.79;99706.88;4959238;28;96764;-82
2021/11/01 05:32:18;;;;;;;35.80;23.33;;;;;;;15.02;49.42;99720.59;4961762;28;98892;-81
2021/11/01 05:34:45;;;;;;;35.47;23.50;;;;;;;14.95;49.71;99706.00;4958151;28;99532;-81
2021/11/01 05:37:11;;;;;;;34.30;22.08;;;;;;;15.11;49.21;99711.09;4966589;28;96832;-81
2021/11/01 05:39:38;;;;;;;34.97;22.88;;;;;;;15.07;49.12;99704.28;4958301;28;96789;-81
2021/11/01 05:42:06;;;;;;;34.40;22.98;;;;;;;14.96;49.66;99705.06;4957459;28;100892;-81
2021/11/01 05:44:44;;;;;;;38.05;23.33;;;;;;;15.07;49.37;99713.13;4957657;28;101456;-81
2021/11/01 05:47:14;;;;;;;39.92;24.13;;;;;;;15.08;49.08;99703.34;4945887;28;97169;-82
2021/11/01 05:49:41;;;;;;;33.35;23.05;;;;;;;15.09;49.08;99705.91;4960549;28;96676;-82
2021/11/01 05:52:15;;;;;;;37.20;23.70;;;;;;;15.15;49.08;99710.78;4966858;28;97892;-81
2021/11/01 05:54:43;;;;;;;38.55;24.35;;;;;;;15.23;49.18;99706.72;4973380;28;99005;-82
2021/11/01 05:57:20;;;;;;;40.53;25.20;;;;;;;15.22;49.15;99705.88;4981762;28;96685;-82
2021/11/01 06:02:47;;;;;;;37.60;23.63;;;;;;;15.18;49.26;99703.53;4969619;28;97677;-83
2021/11/01 06:08:23;;;;;;;39.75;25.25;;;;;;;15.27;48.99;99717.03;4972457;28;97688;-82
2021/11/01 06:13:24;;;;;;;39.20;24.65;;;;;;;15.15;49.25;99736.53;4973031;28;97773;-81
2021/11/01 06:13:40;;;;;;;38.03;24.48;;;;;;;15.08;49.46;99732.59;4968751;28;98189;-81
2021/11/01 06:16:06;;;;;;;40.80;25.40;;;;;;;15.05;49.47;99727.47;4954420;28;101075;-80
2021/11/01 06:18:38;;;;;;;40.75;24.85;;;;;;;15.16;49.06;99735.59;4951806;28;99440;-80
2021/11/01 06:21:05;;;;;;;54.10;27.30;;;;;;;15.40;48.62;99751.63;4953096;28;96852;-80
2021/11/01 06:23:33;;;;;;;41.50;24.83;;;;;;;15.25;48.84;99756.22;4956799;28;99276;-81
2021/11/01 06:26:00;;;;;;;45.30;25.55;;;;;;;15.32;48.79;99738.84;4955747;28;99165;-80
2021/11/01 06:28:28;;;;;;;38.72;24.75;;;;;;;15.45;48.47;99750.34;4968092;28;96879;-80
2021/11/01 06:30:58;;;;;;;38.63;24.88;;;;;;;15.51;48.35;99747.22;4971735;28;96684;-81
2021/11/01 06:33:46;;;;;;;43.67;25.90;;;;;;;15.38;48.84;99749.06;4986355;28;98633;-80
2021/11/01 06:41:47;;;;;;;44.17;24.88;;;;;;;15.35;48.97;99761.75;4965571;28;96717;-79
2021/11/01 06:49:56;;;;;;;41.67;24.27;;;;;;;15.71;48.22;99772.47;4955275;28;97202;-82
2021/11/01 07:14:53;;;;;;;50.00;24.33;;;;;;;16.46;46.16;99806.94;4961371;28;98681;-81
2021/11/01 07:17:28;;;;;;;36.08;23.67;;;;;;;16.30;46.65;99808.06;4958989;28;98440;-80
2021/11/01 07:20:14;;;;;;;40.95;24.85;;;;;;;16.55;46.19;99809.75;4950619;28;99637;-81
2021/11/01 08:20:56;;;;;;;48.80;24.55;;;;;;;16.83;45.90;99867.28;4958564;28;96899;-80
2021/11/01 08:23:59;;;;;;;39.15;25.13;;;;;;;16.70;46.30;99867.34;4958397;28;98457;-80
2021/11/01 08:43:18;;;;;;;42.60;24.80;;;;;;;17.31;45.44;99912.56;4962356;28;98633;-83
2021/11/01 08:46:04;;;;;;;44.90;26.13;;;;;;;17.37;45.00;99904.94;4958898;28;99750;-82
2021/11/01 08:48:48;;;;;;;40.25;24.50;;;;;;;17.36;45.27;99913.94;4961327;28;101034;-83
2021/11/01 09:18:41;;;;;;;35.67;23.75;;;;;;;17.40;45.08;99941.22;4966828;28;98047;-82
2021/11/01 09:19:47;;;;;;;47.20;23.20;;;;;;;17.66;44.74;99949.94;4954215;28;98930;-82
2021/11/01 09:22:41;;;;;;;35.65;23.70;;;;;;;17.33;45.72;99953.34;4950051;28;98587;-84
2021/11/01 09:28:04;;;;;;;36.83;23.67;;;;;;;17.74;44.58;99959.06;4946477;28;97412;-83
2021/11/01 09:35:44;;;;;;;36.47;23.02;;;;;;;17.74;44.84;99959.06;4952066;28;99968;-83
2021/11/01 09:42:05;;;;;;;33.92;22.17;;;;;;;17.68;45.06;99970.25;4910038;28;97201;-82
2021/11/01 09:44:32;;;;;;;36.88;22.63;;;;;;;17.69;45.14;99966.59;4957649;28;97452;-83
2021/11/01 09:47:00;;;;;;;38.53;21.85;;;;;;;18.00;44.35;99959.72;4960687;28;97678;-82
2021/11/01 09:49:30;;;;;;;34.47;21.42;;;;;;;18.18;44.07;99962.78;4972484;28;97378;-83
2021/11/01 09:51:59;;;;;;;36.33;22.52;;;;;;;18.07;44.26;99960.09;4972723;28;97179;-83
2021/11/01 09:54:31;;;;;;;36.80;20.27;;;;;;;18.08;44.21;99957.31;4953310;28;98970;-81
2021/11/01 09:57:02;;;;;;;35.97;21.20;;;;;;;18.28;43.93;99964.59;4953604;28;97703;-83
2021/11/01 09:59:32;;;;;;;40.35;20.85;;;;;;;18.45;43.83;99955.22;4950782;28;96988;-82
2021/11/01 10:02:00;;;;;;;35.58;20.15;;;;;;;18.41;43.58;99953.78;4954581;28;101432;-84
2021/11/01 10:04:30;;;;;;;28.70;19.15;;;;;;;18.47;43.41;99947.91;4957325;28;99840;-84
2021/11/01 10:07:22;;;;;;;34.47;19.95;;;;;;;18.55;43.17;99940.16;4958729;28;98062;-83
2021/11/01 10:09:52;;;;;;;30.17;21.15;;;;;;;18.21;44.02;99952.69;4957806;28;96950;-85
2021/11/01 10:21:37;;;;;;;34.42;20.08;;;;;;;18.39;44.75;99936.97;4892381;28;96900;-83
2021/11/01 10:24:13;;;;;;;32.67;18.20;;;;;;;18.65;44.68;99935.75;4975596;28;97847;-83
2021/11/01 10:26:50;;;;;;;39.92;22.13;;;;;;;18.62;45.19;99945.88;4971981;28;97162;-82
2021/11/01 10:29:17;;;;;;;39.92;18.80;;;;;;;18.44;45.67;99941.97;4968586;28;98050;-82
2021/11/01 10:31:45;;;;;;;28.88;17.73;;;;;;;18.62;45.68;99933.34;4972104;28;97003;-82
2021/11/01 10:34:14;;;;;;;30.90;19.00;;;;;;;18.66;46.08;99945.47;4975249;28;97781;-82
2021/11/01 10:36:43;;;;;;;35.25;22.10;;;;;;;18.68;46.06;99943.53;4976361;28;98277;-83
2021/11/01 10:39:12;;;;;;;33.47;18.70;;;;;;;18.95;45.77;99945.78;4977228;28;97539;-82
2021/11/01 10:45:00;;;;;;;33.03;17.92;;;;;;;19.02;45.48;99955.00;4967845;28;97744;-81
2021/11/01 11:12:30;;;;;;;22.25;12.55;;;;;;;19.13;44.31;99966.66;4974488;28;96154;-82
2021/11/01 11:15:07;;;;;;;31.52;13.13;;;;;;;19.16;44.24;99969.09;4970213;28;96666;-82
2021/11/01 11:17:39;;;;;;;28.50;13.27;;;;;;;19.17;44.04;99966.25;4972087;28;98784;-82
2021/11/01 11:20:39;;;;;;;21.67;12.85;;;;;;;18.91;44.35;99951.50;4953333;28;96877;-82
2021/11/01 11:26:23;;;;;;;25.23;13.02;;;;;;;19.08;43.96;99970.56;4949640;28;96907;-83
2021/11/01 11:32:39;;;;;;;23.50;12.07;;;;;;;18.92;44.39;99980.81;4956430;28;96994;-84
2021/11/01 11:49:47;;;;;;;22.13;13.70;;;;;;;19.27;45.21;99991.31;4977139;28;96736;-82
2021/11/01 11:52:16;;;;;;;28.05;14.63;;;;;;;18.84;46.23;99977.91;4975791;28;96729;-83
2021/11/01 11:54:47;;;;;;;25.98;14.48;;;;;;;18.90;46.28;99981.94;4967088;28;97525;-84
2021/11/01 11:57:23;;;;;;;23.25;12.25;;;;;;;19.00;45.48;99966.81;4973779;28;96015;-83
2021/11/01 11:59:51;;;;;;;23.67;13.43;;;;;;;19.15;45.55;99972.72;4977592;28;96454;-84
2021/11/01 12:02:38;;;;;;;25.20;13.73;;;;;;;19.35;45.10;99961.22;4971318;28;98182;-85
2021/11/01 12:05:23;;;;;;;;;;;;;;;19.13;45.68;99951.44;4967761;28;100744;-85
2021/11/01 12:08:03;;;;;;;37.47;14.25;;;;;;;18.90;46.49;99955.19;4962773;28;96619;-84
2021/11/01 12:13:28;;;;;;;27.15;16.33;;;;;;;18.95;47.27;99950.28;4956508;28;96820;-85
2021/11/01 12:18:50;;;;;;;24.30;15.27;;;;;;;18.68;47.66;99935.53;4977844;28;95947;-82
2021/11/01 12:21:18;;;;;;;21.13;14.57;;;;;;;18.14;48.90;99935.44;4956267;28;96515;-83
2021/11/01 12:23:50;;;;;;;27.20;15.07;;;;;;;18.50;48.34;99933.47;4964245;28;99986;-83
2021/11/01 12:26:32;;;;;;;25.98;14.85;;;;;;;18.38;48.43;99945.97;4966050;28;98043;-83
2021/11/01 12:32:30;;;;;;;25.85;14.25;;;;;;;18.19;49.76;99953.75;4968163;28;98748;-83
2021/11/01 12:37:56;;;;;;;24.55;14.70;;;;;;;18.14;49.92;99939.91;4964220;28;99481;-84
2021/11/01 12:40:37;;;;;;;30.60;14.85;;;;;;;18.19;49.97;99941.25;4958611;28;96795;-83
2021/11/01 12:58:06;;;;;;;19.23;12.43;;;;;;;18.37;49.55;99949.66;4960914;28;97738;-84
2021/11/01 13:03:37;;;;;;;18.02;11.00;;;;;;;18.17;50.14;99959.25;4975397;28;96672;-84
2021/11/01 13:06:15;;;;;;;20.83;11.43;;;;;;;18.30;50.16;99967.16;4955720;28;98103;-81
2021/11/01 13:09:13;;;;;;;18.77;10.50;;;;;;;17.96;51.21;99965.44;4939383;28;97790;-82
2021/11/01 13:12:23;;;;;;;24.52;10.52;;;;;;;18.09;51.21;99964.34;4962101;28;98510;-82
2021/11/01 13:15:03;;;;;;;20.30;10.10;;;;;;;18.35;50.66;99970.31;4976018;28;97674;-81
2021/11/01 13:18:05;;;;;;;16.98;10.55;;;;;;;18.36;50.90;99971.16;4942872;28;97799;-82
2021/11/01 13:20:35;;;;;;;23.80;11.23;;;;;;;18.24;51.18;99975.66;4956924;28;99163;-80
2021/11/01 13:23:12;;;;;;;17.67;10.93;;;;;;;18.51;50.63;99977.97;4956748;28;98876;-82
2021/11/01 13:26:03;;;;;;;23.52;11.13;;;;;;;18.42;50.66;99974.19;4942680;28;97252;-81
2021/11/01 13:37:16;;;;;;;23.90;9.60;;;;;;;18.11;51.26;99959.75;4906229;28;98845;-82
2021/11/01 13:39:44;;;;;;;15.85;10.07;;;;;;;17.86;52.35;99960.78;4953081;28;98574;-83
2021/11/01 13:42:16;;;;;;;18.00;9.35;;;;;;;18.14;51.92;99961.31;4956469;28;99538;-82
2021/11/01 13:44:45;;;;;;;16.35;8.85;;;;;;;18.09;51.83;99952.81;4958487;28;100634;-81
2021/11/01 13:47:14;;;;;;;15.85;8.20;;;;;;;18.10;51.39;99957.19;4957562;28;96858;-82
2021/11/01 13:49:44;;;;;;;14.95;7.90;;;;;;;17.87;52.31;99956.31;4957834;28;97241;-82
2021/11/01 13:52:26;;;;;;;12.65;7.13;;;;;;;17.87;52.10;99948.28;4953542;28;98627;-82
2021/11/01 13:55:05;;;;;;;12.93;6.97;;;;;;;17.68;52.44;99943.53;4959967;28;98275;-82
2021/11/01 14:00:37;;;;;;;11.82;6.57;;;;;;;17.29;53.91;99935.88;4960270;28;96814;-81
2021/11/01 14:03:26;;;;;;;16.50;5.70;;;;;;;17.44;52.99;99942.72;4962111;28;97999;-82
2021/11/01 14:29:56;;;;;;;11.10;3.50;;;;;;;17.05;54.01;99949.25;4934509;28;96488;-83
2021/11/01 16:21:58;;;;;;;11.68;5.03;;;;;;;16.25;56.91;99995.97;4935689;28;96909;-84
2021/11/01 16:52:45;;;;;;;9.73;4.45;;;;;;;16.33;56.46;99994.47;4939440;28;97797;-83
2021/11/01 16:56:43;;;;;;;7.95;4.30;;;;;;;16.47;55.45;99989.97;4909825;28;98656;-83
2021/11/01 21:25:01;;;;;;;11.07;4.50;;;;;;;15.66;55.77;99976.16;4997351;28;96663;-85
2021/11/01 21:27:28;;;;;;;8.07;4.40;;;;;;;15.57;56.14;99971.44;5018688;28;96913;-84
2021/11/01 21:29:57;;;;;;;6.93;4.88;;;;;;;15.48;56.12;99970.25;5011639;28;99706;-84
2021/11/01 21:32:26;;;;;;;7.75;4.70;;;;;;;15.62;56.44;99970.16;5014484;28;101003;-86
2021/11/01 21:35:00;;;;;;;8.43;4.60;;;;;;;15.59;56.05;99965.06;4981880;28;98612;-87
2021/11/01 21:37:27;;;;;;;7.50;4.50;;;;;;;15.75;55.96;99967.53;5001622;28;98841;-83
2021/11/01 21:39:57;;;;;;;7.65;3.85;;;;;;;15.78;55.98;99964.66;4995037;28;100345;-82
2021/11/01 21:42:24;;;;;;;8.23;4.70;;;;;;;15.85;55.96;99972.13;4999622;28;96906;-80
2021/11/01 21:44:54;;;;;;;10.20;4.55;;;;;;;15.89;56.05;99968.28;4981671;28;96959;-85
2021/11/01 21:47:24;;;;;;;10.05;5.03;;;;;;;15.48;56.93;99971.09;4998781;28;96872;-83
2021/11/01 21:49:54;;;;;;;8.13;4.60;;;;;;;15.48;57.49;99955.13;4991465;28;97624;-86
2021/11/01 21:55:38;;;;;;;8.25;4.60;;;;;;;15.66;56.81;99966.34;4997419;28;96895;-87
2021/11/01 22:25:28;;;;;;;10.95;4.80;;;;;;;15.34;58.41;99933.91;4935240;28;97150;-88
2021/11/01 22:44:04;;;;;;;10.90;5.10;;;;;;;15.50;58.37;99917.72;4930965;28;96593;-84
2021/11/01 22:46:46;;;;;;;8.50;5.70;;;;;;;15.36;59.16;99915.19;4952096;28;97186;-85
2021/11/01 23:33:21;;;;;;;11.68;4.57;;;;;;;15.30;59.82;99894.28;4868306;28;96612;-86
2021/11/01 23:35:50;;;;;;;8.45;5.15;;;;;;;15.16;60.13;99885.41;4863988;28;96990;-85
2021/11/01 23:41:25;;;;;;;7.00;4.13;;;;;;;15.49;58.90;99889.44;4934739;28;96560;-88
